RJFA(METAR)
06/25 08:00
METAR RJFA 242300Z 15005KT 9999 FEW010 20/17 Q1015 RMK 1ST010 A2999
1ST010 W=
戻る
トップページへ戻る
IMOC Co,.Ltd.